createdAt,value
2022-08-22T00:02:04.384Z,95
2022-08-22T00:07:12.216Z,92
2022-08-22T00:12:20.088Z,92
2022-08-22T00:17:26.626Z,92
2022-08-22T00:22:34.571Z,92
2022-08-22T00:27:42.622Z,92
2022-08-22T00:32:50.314Z,92
2022-08-22T00:37:57.979Z,94
2022-08-22T00:44:36.699Z,92
2022-08-22T00:49:43.373Z,92
2022-08-22T00:54:51.102Z,94
2022-08-22T00:59:58.786Z,94
2022-08-22T01:05:06.841Z,94
2022-08-22T01:10:15.260Z,91
2022-08-22T01:15:23.178Z,92
2022-08-22T01:20:31.284Z,92
2022-08-22T01:25:37.843Z,91
2022-08-22T01:30:44.849Z,92
2022-08-22T01:35:53.045Z,90
2022-08-22T01:41:01.824Z,94
2022-08-22T01:46:10.853Z,90
2022-08-22T01:51:19.129Z,91
2022-08-22T01:56:27.167Z,90
2022-08-22T02:01:34.462Z,92
2022-08-22T02:06:42.362Z,90
2022-08-22T02:11:49.990Z,94
2022-08-22T02:16:58.329Z,91
2022-08-22T02:22:05.679Z,89
2022-08-22T02:27:13.521Z,92
2022-08-22T02:32:20.695Z,89
2022-08-22T02:37:29.047Z,88
2022-08-22T02:42:37.525Z,89
2022-08-22T02:47:45.302Z,91
2022-08-22T02:52:53.526Z,89
2022-08-22T02:58:01.776Z,91
2022-08-22T03:03:09.591Z,88
2022-08-22T03:08:17.521Z,89
2022-08-22T03:13:33.577Z,88
2022-08-22T03:18:42.005Z,89
2022-08-22T03:23:48.698Z,89
2022-08-22T03:30:28.077Z,87
2022-08-22T03:35:34.007Z,91
2022-08-22T03:40:41.635Z,90
2022-08-22T03:45:49.509Z,89
2022-08-22T03:50:57.532Z,87
2022-08-22T03:56:12.396Z,91
2022-08-22T04:01:19.830Z,88
2022-08-22T04:06:26.946Z,88
2022-08-22T04:11:34.618Z,89
2022-08-22T04:16:42.518Z,88
2022-08-22T04:21:49.660Z,88
2022-08-22T04:26:57.652Z,89
2022-08-22T04:32:06.122Z,86
2022-08-22T04:37:13.215Z,87
2022-08-22T04:42:20.725Z,88
2022-08-22T04:47:28.218Z,87
2022-08-22T04:52:35.995Z,88
2022-08-22T04:57:43.988Z,89
2022-08-22T05:02:52.318Z,89
2022-08-22T05:08:00.394Z,87
2022-08-22T05:13:08.887Z,86
2022-08-22T05:18:17.139Z,86
2022-08-22T05:23:24.423Z,88
2022-08-22T05:28:32.623Z,89
2022-08-22T05:33:41.211Z,88
2022-08-22T05:38:49.403Z,86
2022-08-22T05:43:57.527Z,91
2022-08-22T05:49:06.003Z,90
2022-08-22T05:54:13.340Z,83
2022-08-22T05:59:21.178Z,87
2022-08-22T06:04:29.601Z,88
2022-08-22T06:09:37.690Z,86
2022-08-22T06:14:45.410Z,87
2022-08-22T06:19:53.811Z,86
2022-08-22T06:25:03.782Z,88
2022-08-22T06:30:10.925Z,88
2022-08-22T06:35:18.485Z,89
2022-08-22T06:40:26.407Z,89
2022-08-22T06:45:34.412Z,89
2022-08-22T06:50:43.379Z,90
2022-08-22T06:55:52.498Z,87
2022-08-22T07:01:00.087Z,89
2022-08-22T07:06:08.726Z,89
2022-08-22T07:11:15.432Z,89
2022-08-22T07:16:23.445Z,91
2022-08-22T07:21:32.606Z,91
2022-08-22T07:26:39.664Z,89
2022-08-22T07:31:47.422Z,89
2022-08-22T07:36:55.768Z,91
2022-08-22T07:42:03.511Z,90
2022-08-22T07:47:11.615Z,90
2022-08-22T07:52:18.783Z,88
2022-08-22T07:57:28.349Z,89
2022-08-22T08:02:35.741Z,90
2022-08-22T08:07:44.008Z,89
2022-08-22T08:12:51.491Z,90
2022-08-22T08:17:57.317Z,94
2022-08-22T08:23:05.650Z,90
2022-08-22T08:28:14.169Z,91
2022-08-22T08:33:21.760Z,90
2022-08-22T08:38:28.945Z,94
2022-08-22T08:43:36.409Z,90
2022-08-22T08:48:44.340Z,90
2022-08-22T08:53:52.626Z,94
2022-08-22T08:59:00.055Z,94
2022-08-22T09:04:08.410Z,92
2022-08-22T09:09:16.374Z,89
2022-08-22T09:14:23.907Z,95
2022-08-22T09:19:32.087Z,95
2022-08-22T09:24:39.920Z,95
2022-08-22T09:29:47.668Z,95
2022-08-22T09:34:54.294Z,94
2022-08-22T09:40:02.072Z,94
2022-08-22T09:45:10.487Z,94
2022-08-22T09:50:18.010Z,94
2022-08-22T09:55:25.686Z,98
2022-08-22T10:00:34.137Z,97
2022-08-22T10:05:41.489Z,97
2022-08-22T10:10:49.179Z,97
2022-08-22T10:15:56.630Z,97
2022-08-22T10:21:04.537Z,96
2022-08-22T10:26:52.427Z,98
2022-08-22T10:32:00.215Z,97
2022-08-22T10:37:06.787Z,97
2022-08-22T10:42:14.622Z,97
2022-08-22T10:47:21.828Z,97
2022-08-22T10:52:29.864Z,98
2022-08-22T10:57:36.872Z,97
2022-08-22T11:02:44.098Z,96
2022-08-22T11:07:51.714Z,97
2022-08-22T11:12:58.967Z,97
2022-08-22T11:18:15.515Z,98
2022-08-22T11:23:23.099Z,98
2022-08-22T11:28:30.650Z,98
2022-08-22T11:33:39.114Z,98
2022-08-22T11:38:47.762Z,100
2022-08-22T11:43:56.778Z,100
2022-08-22T11:49:04.576Z,99
2022-08-22T11:54:12.484Z,99
2022-08-22T11:59:20.395Z,100
2022-08-22T12:04:28.248Z,100
2022-08-22T12:09:34.954Z,100
2022-08-22T12:14:43.190Z,100
2022-08-22T12:19:51.477Z,98
2022-08-22T12:25:00.079Z,100
2022-08-22T12:30:08.731Z,100
2022-08-22T12:35:15.449Z,100
2022-08-22T12:40:23.945Z,100
2022-08-22T12:45:31.032Z,100
2022-08-22T12:50:39.138Z,100
2022-08-22T12:55:46.146Z,100
2022-08-22T13:00:54.623Z,100
2022-08-22T13:06:03.617Z,100
2022-08-22T13:11:11.739Z,100
2022-08-22T13:16:19.833Z,100
2022-08-22T13:21:28.404Z,100
2022-08-22T13:26:37.530Z,100
2022-08-22T13:31:44.571Z,100
2022-08-22T13:36:52.721Z,100
2022-08-22T13:42:00.529Z,100
2022-08-22T13:47:08.172Z,100
2022-08-22T13:52:14.956Z,100
2022-08-22T13:57:23.290Z,100
2022-08-22T14:02:30.626Z,100
2022-08-22T14:07:37.802Z,100
2022-08-22T14:12:45.658Z,100
2022-08-22T14:17:54.086Z,100
2022-08-22T14:23:00.531Z,100
2022-08-22T14:28:09.676Z,100
2022-08-22T14:33:17.527Z,100
2022-08-22T14:38:24.981Z,100
2022-08-22T14:43:33.207Z,100
2022-08-22T14:48:41.003Z,100
2022-08-22T14:53:47.676Z,100
2022-08-22T14:58:54.943Z,100
2022-08-22T15:04:03.669Z,100
2022-08-22T15:09:10.090Z,100
2022-08-22T15:14:18.965Z,100
2022-08-22T15:19:26.669Z,100
2022-08-22T15:24:34.257Z,100
2022-08-22T15:29:42.489Z,100
2022-08-22T15:34:50.238Z,100
2022-08-22T15:39:57.681Z,100
2022-08-22T15:45:04.297Z,100
2022-08-22T15:50:11.421Z,100
2022-08-22T15:55:19.070Z,100
2022-08-22T16:00:27.597Z,100
2022-08-22T16:05:34.305Z,100
2022-08-22T16:10:41.497Z,100
2022-08-22T16:15:48.098Z,100
2022-08-22T16:20:56.705Z,100
2022-08-22T16:26:05.532Z,100
2022-08-22T16:31:19.439Z,100
2022-08-22T16:36:27.070Z,100
2022-08-22T16:41:33.853Z,100
2022-08-22T16:46:43.107Z,100
2022-08-22T16:51:49.921Z,100
2022-08-22T16:56:57.187Z,100
2022-08-22T17:02:04.475Z,100
2022-08-22T17:07:13.368Z,100
2022-08-22T17:12:20.735Z,100
2022-08-22T17:17:27.289Z,100
2022-08-22T17:22:35.318Z,100
2022-08-22T17:27:43.022Z,100
2022-08-22T17:32:50.140Z,100
2022-08-22T17:37:57.785Z,100
2022-08-22T17:43:06.331Z,100
2022-08-22T17:48:13.830Z,100
2022-08-22T17:53:21.323Z,100
2022-08-22T17:58:29.453Z,100
2022-08-22T18:03:37.292Z,100
2022-08-22T18:08:50.163Z,100
2022-08-22T18:13:56.895Z,100
2022-08-22T18:19:03.846Z,100
2022-08-22T18:24:11.130Z,100
2022-08-22T18:29:18.329Z,100
2022-08-22T18:34:25.524Z,100
2022-08-22T18:39:32.765Z,100
2022-08-22T18:44:41.044Z,100
2022-08-22T18:49:48.753Z,100
2022-08-22T18:54:56.883Z,100
2022-08-22T19:00:03.421Z,100
2022-08-22T19:05:12.060Z,100
2022-08-22T19:10:20.441Z,100
2022-08-22T19:15:26.972Z,100
2022-08-22T19:20:35.569Z,100
2022-08-22T19:25:43.263Z,100
2022-08-22T19:30:51.111Z,99
2022-08-22T19:35:58.334Z,100
2022-08-22T19:41:05.679Z,99
2022-08-22T19:46:13.567Z,99
2022-08-22T19:51:21.750Z,100
2022-08-22T19:56:29.236Z,100
2022-08-22T20:01:37.324Z,99
2022-08-22T20:06:45.507Z,99
2022-08-22T20:11:52.759Z,100
2022-08-22T20:17:01.176Z,100
2022-08-22T20:22:09.166Z,98
2022-08-22T20:27:17.183Z,100
2022-08-22T20:32:24.961Z,98
2022-08-22T20:37:32.889Z,100
2022-08-22T20:42:40.411Z,95
2022-08-22T20:47:48.865Z,100
2022-08-22T20:52:56.536Z,98
2022-08-22T20:58:03.784Z,99
2022-08-22T21:03:11.433Z,98
2022-08-22T21:08:19.145Z,98
2022-08-22T21:13:27.424Z,98
2022-08-22T21:18:36.085Z,100
2022-08-22T21:23:43.647Z,97
2022-08-22T21:28:51.418Z,99
2022-08-22T21:33:58.885Z,97
2022-08-22T21:39:07.262Z,97
2022-08-22T21:44:15.451Z,98
2022-08-22T21:49:22.122Z,100
2022-08-22T21:54:30.015Z,100
2022-08-22T21:59:38.297Z,98
2022-08-22T22:04:46.803Z,99
2022-08-22T22:09:54.774Z,97
2022-08-22T22:15:02.790Z,98
2022-08-22T22:20:09.811Z,97
2022-08-22T22:25:18.054Z,97
2022-08-22T22:30:26.334Z,97
2022-08-22T22:35:34.613Z,97
2022-08-22T22:40:43.864Z,97
2022-08-22T22:45:51.575Z,97
2022-08-22T22:50:58.805Z,96
2022-08-22T22:56:06.246Z,98
2022-08-22T23:01:14.066Z,96
2022-08-22T23:06:30.282Z,97
2022-08-22T23:11:37.628Z,97
2022-08-22T23:16:45.713Z,97
2022-08-22T23:21:53.542Z,96
2022-08-22T23:27:01.485Z,96
2022-08-22T23:32:08.597Z,95
2022-08-22T23:37:15.102Z,97
2022-08-22T23:42:23.025Z,96
2022-08-22T23:47:30.861Z,94
2022-08-22T23:52:38.010Z,96
2022-08-22T23:57:45.872Z,96
